Time;durP1;ratioP1;P1;durP2;ratioP2;P2;SDS_P1;SDS_P2;PMS_P1;PMS_P2;Temp;Humidity;BMP_temperature;BMP_pressure;BME280_temperature;BME280_humidity;BME280_pressure;Samples;Min_cycle;Max_cycle;Signal;HPM_P1;HPM_P2
2021/11/28 00:00:42;;;;;;;;;;;23.90;39.50;;;;;;5098773;28;19912;-85
2021/11/28 00:03:08;;;;;;;;;;;24.00;39.50;;;;;;5116302;28;20301;-88
2021/11/28 00:05:34;;;;;;;;;;;24.10;39.50;;;;;;5098987;28;19962;-86
2021/11/28 00:08:17;;;;;;;;;;;24.10;40.10;;;;;;5115825;28;19908;-84
2021/11/28 00:13:22;;;;;;;;;;;24.10;39.50;;;;;;5116255;28;19922;-87
2021/11/28 00:15:47;;;;;;;;;;;24.10;39.60;;;;;;5101192;28;20003;-85
2021/11/28 00:18:15;;;;;;;;;;;24.20;39.60;;;;;;5115750;28;19981;-84
2021/11/28 00:20:41;;;;;;;;;;;24.20;39.60;;;;;;5098724;28;19908;-84
2021/11/28 00:23:09;;;;;;;;;;;24.20;39.60;;;;;;5098965;28;20064;-88
2021/11/28 00:25:34;;;;;;;;;;;24.20;39.90;;;;;;5098849;28;19951;-85
2021/11/28 00:28:02;;;;;;;;;;;24.20;40.00;;;;;;5115824;28;19915;-85
2021/11/28 00:30:31;;;;;;;;;;;24.20;40.00;;;;;;5115486;28;19908;-84
2021/11/28 00:32:58;;;;;;;;;;;24.20;39.90;;;;;;5098340;28;19922;-85
2021/11/28 00:35:26;;;;;;;;;;;24.30;40.00;;;;;;5098524;28;19908;-85
2021/11/28 00:37:51;;;;;;;;;;;24.30;39.90;;;;;;5115061;28;19928;-84
2021/11/28 00:40:19;;;;;;;;;;;24.30;40.10;;;;;;5098339;28;20275;-86
2021/11/28 00:42:45;;;;;;;;;;;24.30;40.30;;;;;;5098597;28;20306;-83
2021/11/28 00:45:10;;;;;;;;;;;24.30;40.50;;;;;;5098619;28;19907;-87
2021/11/28 00:47:36;;;;;;;;;;;24.40;40.80;;;;;;5098462;28;19908;-86
2021/11/28 00:52:43;;;;;;;;;;;24.40;41.40;;;;;;5118841;28;19923;-84
2021/11/28 00:55:09;;;;;;;;;;;24.40;42.40;;;;;;5120871;28;19919;-88
2021/11/28 00:57:34;;;;;;;;;;;24.40;43.30;;;;;;5115887;28;19908;-86
2021/11/28 01:00:02;;;;;;;;;;;24.40;43.70;;;;;;5115367;28;19908;-84
2021/11/28 01:02:27;;;;;;;;;;;24.40;44.10;;;;;;5101934;28;19923;-85
2021/11/28 01:04:53;;;;;;;;;;;24.40;44.20;;;;;;5119480;28;19907;-83
2021/11/28 01:07:18;;;;;;;;;;;24.40;44.70;;;;;;5119501;28;19919;-87
2021/11/28 01:09:46;;;;;;;;;;;23.40;32.50;;;;;;5102177;28;19927;-78
2021/11/28 01:12:14;;;;;;;;;;;19.00;37.20;;;;;;5100631;28;19912;-85
2021/11/28 01:14:42;;;;;;;;;;;15.20;45.60;;;;;;5099065;28;19980;-81
2021/11/28 01:17:08;;;;;;;;;;;16.00;51.90;;;;;;5081598;28;19919;-81
2021/11/28 01:19:33;;;;;;;;;;;17.80;49.10;;;;;;5098339;28;19908;-85
2021/11/28 01:22:04;;;;;;;;;;;19.20;45.80;;;;;;5081768;28;19943;-79
2021/11/28 01:24:30;;;;;;;;;;;20.40;43.90;;;;;;5098362;28;19908;-81
2021/11/28 01:26:58;;;;;;;;;;;21.20;42.30;;;;;;5098438;28;19919;-85
2021/11/28 01:29:26;;;;;;;;;;;21.80;41.30;;;;;;5081721;28;19909;-83
2021/11/28 01:31:52;;;;;;;;;;;22.20;40.70;;;;;;5081389;28;20326;-81
2021/11/28 01:34:22;;;;;;;;;;;22.60;40.40;;;;;;5081293;28;19923;-84
2021/11/28 01:36:50;;;;;;;;;;;22.80;40.20;;;;;;5081631;28;19912;-83
2021/11/28 01:39:16;;;;;;;;;;;22.90;40.40;;;;;;5098689;28;19924;-84
2021/11/28 01:41:41;;;;;;;;;;;23.00;40.30;;;;;;5098143;28;20140;-84
2021/11/28 01:44:07;;;;;;;;;;;23.10;40.40;;;;;;5081328;28;19973;-88
2021/11/28 01:46:32;;;;;;;;;;;23.10;40.40;;;;;;5081524;28;19938;-83
2021/11/28 01:49:00;;;;;;;;;;;23.20;40.50;;;;;;5098075;28;19908;-83
2021/11/28 01:51:26;;;;;;;;;;;23.20;40.70;;;;;;5081133;28;20249;-84
2021/11/28 01:53:54;;;;;;;;;;;23.20;40.80;;;;;;5098616;28;19912;-81
2021/11/28 01:56:20;;;;;;;;;;;23.20;40.80;;;;;;5098062;28;19908;-82
2021/11/28 01:58:45;;;;;;;;;;;23.20;40.90;;;;;;5097747;28;20073;-85
2021/11/28 02:01:12;;;;;;;;;;;23.20;40.90;;;;;;5080953;28;19908;-84
2021/11/28 02:03:39;;;;;;;;;;;23.20;41.00;;;;;;5097864;28;19909;-81
2021/11/28 02:06:05;;;;;;;;;;;23.20;41.00;;;;;;5081649;28;19969;-84
2021/11/28 02:08:31;;;;;;;;;;;23.20;41.10;;;;;;5080873;28;20325;-84
2021/11/28 02:10:58;;;;;;;;;;;23.20;41.10;;;;;;5097422;28;19961;-81
2021/11/28 02:13:24;;;;;;;;;;;23.20;41.10;;;;;;5096371;28;19912;-82
2021/11/28 02:15:50;;;;;;;;;;;23.20;41.20;;;;;;5080343;28;19908;-82
2021/11/28 02:18:18;;;;;;;;;;;23.10;41.20;;;;;;5081045;28;19908;-84
2021/11/28 02:20:46;;;;;;;;;;;23.20;41.30;;;;;;5080786;28;19908;-82
2021/11/28 02:23:12;;;;;;;;;;;23.10;41.30;;;;;;5080709;28;19908;-82
2021/11/28 02:25:37;;;;;;;;;;;23.10;41.40;;;;;;5097590;28;19960;-82
2021/11/28 02:28:05;;;;;;;;;;;23.10;41.90;;;;;;5097153;28;19912;-84
2021/11/28 02:30:30;;;;;;;;;;;23.10;41.30;;;;;;5080886;28;20364;-81
2021/11/28 02:32:57;;;;;;;;;;;23.10;41.40;;;;;;5097443;28;19912;-83
2021/11/28 02:35:22;;;;;;;;;;;23.00;41.40;;;;;;5080429;28;20355;-84
2021/11/28 02:37:48;;;;;;;;;;;23.00;41.40;;;;;;5080151;28;19920;-83
2021/11/28 02:40:17;;;;;;;;;;;23.00;41.50;;;;;;5097235;28;20398;-84
2021/11/28 02:42:43;;;;;;;;;;;23.00;41.50;;;;;;5080225;28;20003;-84
2021/11/28 02:45:09;;;;;;;;;;;23.00;41.50;;;;;;5097104;28;19958;-83
2021/11/28 02:47:34;;;;;;;;;;;23.00;41.50;;;;;;5097246;28;19908;-85
2021/11/28 02:49:59;;;;;;;;;;;23.00;41.60;;;;;;5096903;28;20278;-83
2021/11/28 02:52:26;;;;;;;;;;;22.90;41.60;;;;;;5080634;28;19950;-83
2021/11/28 02:54:52;;;;;;;;;;;22.90;41.60;;;;;;5080067;28;19908;-82
2021/11/28 02:57:17;;;;;;;;;;;22.90;41.60;;;;;;5079877;28;19933;-86
2021/11/28 02:59:43;;;;;;;;;;;22.90;41.50;;;;;;5080244;28;20373;-83
2021/11/28 03:02:11;;;;;;;;;;;22.90;41.60;;;;;;5079867;28;20340;-84
2021/11/28 03:04:41;;;;;;;;;;;22.90;41.70;;;;;;5080397;28;20231;-84
2021/11/28 03:07:07;;;;;;;;;;;22.90;41.70;;;;;;5080104;28;19914;-84
2021/11/28 03:09:32;;;;;;;;;;;22.90;41.70;;;;;;5079661;28;19995;-84
2021/11/28 03:11:58;;;;;;;;;;;22.90;41.60;;;;;;5079421;28;19918;-82
2021/11/28 03:14:23;;;;;;;;;;;22.90;41.60;;;;;;5096352;28;19912;-83
2021/11/28 03:16:49;;;;;;;;;;;22.90;41.70;;;;;;5096097;28;19966;-85
2021/11/28 03:19:17;;;;;;;;;;;22.90;41.70;;;;;;5096434;28;19912;-83
2021/11/28 03:21:42;;;;;;;;;;;22.80;41.70;;;;;;5079341;28;19920;-82
2021/11/28 03:24:10;;;;;;;;;;;22.80;41.70;;;;;;5079233;28;20429;-85
2021/11/28 03:26:36;;;;;;;;;;;22.80;41.70;;;;;;5079807;28;20341;-81
2021/11/28 03:29:12;;;;;;;;;;;22.80;41.70;;;;;;5081562;28;19913;-84
2021/11/28 03:31:38;;;;;;;;;;;22.80;41.70;;;;;;5082804;28;19908;-86
2021/11/28 03:34:04;;;;;;;;;;;22.80;41.70;;;;;;5079002;28;19985;-84
2021/11/28 03:36:29;;;;;;;;;;;22.80;41.70;;;;;;5096362;28;20363;-83
2021/11/28 03:38:55;;;;;;;;;;;22.80;41.80;;;;;;5085859;28;19920;-83
2021/11/28 03:41:21;;;;;;;;;;;22.80;41.80;;;;;;5088888;28;20248;-83
2021/11/28 03:43:47;;;;;;;;;;;22.80;41.80;;;;;;5103484;28;19965;-83
2021/11/28 03:46:12;;;;;;;;;;;22.80;41.80;;;;;;5079360;28;20348;-82
2021/11/28 03:48:38;;;;;;;;;;;22.70;41.80;;;;;;5079067;28;19919;-82
2021/11/28 03:51:08;;;;;;;;;;;22.70;41.80;;;;;;5096284;28;19916;-83
2021/11/28 03:53:36;;;;;;;;;;;22.70;41.80;;;;;;5079518;28;19912;-84
2021/11/28 03:56:08;;;;;;;;;;;22.70;41.80;;;;;;5096217;28;19908;-85
2021/11/28 03:58:34;;;;;;;;;;;22.70;41.80;;;;;;5096180;28;19956;-83
2021/11/28 04:01:00;;;;;;;;;;;22.60;41.80;;;;;;5096118;28;19919;-83
2021/11/28 04:03:25;;;;;;;;;;;22.70;41.80;;;;;;5079072;28;19908;-82
2021/11/28 04:05:53;;;;;;;;;;;22.70;41.80;;;;;;5079099;28;19919;-85
2021/11/28 04:08:19;;;;;;;;;;;22.70;41.80;;;;;;5079034;28;19957;-84
2021/11/28 04:10:47;;;;;;;;;;;22.70;41.80;;;;;;5096765;28;19973;-84
2021/11/28 04:13:12;;;;;;;;;;;22.70;41.80;;;;;;5098193;28;19927;-81
2021/11/28 04:15:40;;;;;;;;;;;22.70;41.80;;;;;;5079383;28;20241;-82
2021/11/28 04:18:06;;;;;;;;;;;22.70;41.80;;;;;;5095642;28;20318;-84
2021/11/28 04:20:34;;;;;;;;;;;22.60;41.80;;;;;;5095680;28;19951;-85
2021/11/28 04:23:00;;;;;;;;;;;22.70;41.90;;;;;;5078315;28;20239;-85
2021/11/28 04:25:26;;;;;;;;;;;22.60;41.80;;;;;;5078901;28;19999;-89
2021/11/28 04:27:53;;;;;;;;;;;22.60;41.80;;;;;;5095619;28;19931;-81
2021/11/28 04:30:19;;;;;;;;;;;22.60;42.30;;;;;;5078732;28;19908;-83
2021/11/28 04:32:47;;;;;;;;;;;22.60;41.70;;;;;;5077982;28;19964;-82
2021/11/28 04:35:15;;;;;;;;;;;22.60;41.70;;;;;;5078177;28;20305;-84
2021/11/28 04:37:40;;;;;;;;;;;22.60;41.70;;;;;;5077959;28;20280;-82
2021/11/28 04:40:08;;;;;;;;;;;22.60;41.70;;;;;;5095306;28;19908;-81
2021/11/28 04:42:34;;;;;;;;;;;22.60;41.70;;;;;;5078598;28;19908;-85
2021/11/28 04:45:02;;;;;;;;;;;22.60;41.70;;;;;;5078110;28;19970;-84
2021/11/28 04:47:30;;;;;;;;;;;22.60;41.70;;;;;;5077831;28;20213;-81
2021/11/28 04:49:55;;;;;;;;;;;22.60;41.70;;;;;;5095112;28;19916;-83
2021/11/28 04:52:23;;;;;;;;;;;22.60;41.60;;;;;;5095074;28;20371;-84
2021/11/28 04:54:49;;;;;;;;;;;22.60;41.70;;;;;;5078057;28;19908;-84
2021/11/28 04:57:15;;;;;;;;;;;22.60;41.60;;;;;;5078207;28;19919;-84
2021/11/28 04:59:40;;;;;;;;;;;22.60;41.60;;;;;;5095106;28;20317;-81
2021/11/28 05:02:06;;;;;;;;;;;22.60;41.60;;;;;;5078209;28;19919;-83
2021/11/28 05:04:34;;;;;;;;;;;22.60;41.60;;;;;;5077813;28;19915;-82
2021/11/28 05:06:59;;;;;;;;;;;22.60;41.60;;;;;;5077753;28;19919;-84
2021/11/28 05:09:25;;;;;;;;;;;22.60;41.60;;;;;;5077528;28;19908;-86
2021/11/28 05:11:52;;;;;;;;;;;22.60;41.60;;;;;;5077718;28;20263;-83
2021/11/28 05:14:20;;;;;;;;;;;22.60;41.60;;;;;;5094886;28;19912;-83
2021/11/28 05:16:48;;;;;;;;;;;22.60;41.60;;;;;;5078181;28;20325;-84
2021/11/28 05:19:16;;;;;;;;;;;22.60;41.60;;;;;;5094876;28;19916;-81
2021/11/28 05:21:44;;;;;;;;;;;22.60;41.60;;;;;;5094587;28;19979;-80
2021/11/28 05:24:15;;;;;;;;;;;22.60;41.60;;;;;;5094570;28;20336;-84
2021/11/28 05:26:45;;;;;;;;;;;22.60;41.60;;;;;;5077914;28;19908;-81
2021/11/28 05:29:11;;;;;;;;;;;22.60;41.60;;;;;;5094669;28;19916;-85
2021/11/28 05:31:36;;;;;;;;;;;22.50;41.60;;;;;;5077468;28;19909;-81
2021/11/28 05:34:04;;;;;;;;;;;22.50;41.60;;;;;;5077284;28;20490;-83
2021/11/28 05:36:29;;;;;;;;;;;22.50;41.70;;;;;;5077910;28;19908;-82
2021/11/28 05:38:57;;;;;;;;;;;22.50;41.70;;;;;;5077387;28;20347;-83
2021/11/28 05:41:23;;;;;;;;;;;22.50;41.70;;;;;;5094344;28;19912;-82
2021/11/28 05:43:51;;;;;;;;;;;22.50;41.70;;;;;;5077468;28;19931;-82
2021/11/28 05:46:17;;;;;;;;;;;22.50;41.70;;;;;;5094326;28;20355;-84
2021/11/28 05:48:42;;;;;;;;;;;22.50;41.70;;;;;;5079191;28;20003;-81
2021/11/28 05:51:08;;;;;;;;;;;22.50;41.70;;;;;;5081293;28;20356;-85
2021/11/28 05:53:36;;;;;;;;;;;22.50;41.70;;;;;;5081033;28;19923;-83
2021/11/28 05:56:01;;;;;;;;;;;22.50;41.70;;;;;;5081179;28;20000;-84
2021/11/28 05:58:27;;;;;;;;;;;22.40;41.70;;;;;;5098016;28;19916;-84
2021/11/28 06:00:55;;;;;;;;;;;22.50;41.70;;;;;;5081317;28;19912;-87
2021/11/28 06:03:23;;;;;;;;;;;22.40;41.70;;;;;;5098087;28;19955;-85
2021/11/28 06:05:48;;;;;;;;;;;22.40;41.70;;;;;;5080816;28;19908;-83
2021/11/28 06:08:16;;;;;;;;;;;22.40;41.70;;;;;;5081315;28;19919;-83
2021/11/28 06:10:44;;;;;;;;;;;22.40;41.70;;;;;;5080984;28;19908;-80
2021/11/28 06:13:10;;;;;;;;;;;22.40;41.60;;;;;;5097680;28;19912;-81
2021/11/28 06:15:38;;;;;;;;;;;22.40;41.70;;;;;;5080597;28;20333;-81
2021/11/28 06:18:03;;;;;;;;;;;22.40;41.70;;;;;;5097330;28;20290;-82
2021/11/28 06:20:29;;;;;;;;;;;22.40;41.60;;;;;;5097946;28;19908;-80
2021/11/28 06:22:54;;;;;;;;;;;22.40;41.60;;;;;;5080433;28;19919;-84
2021/11/28 06:25:20;;;;;;;;;;;22.40;41.60;;;;;;5080783;28;20308;-83
2021/11/28 06:27:45;;;;;;;;;;;22.40;41.60;;;;;;5080480;28;20248;-83
2021/11/28 06:30:13;;;;;;;;;;;22.40;41.60;;;;;;5080616;28;20228;-82
2021/11/28 06:32:39;;;;;;;;;;;22.40;41.50;;;;;;5080234;28;20256;-83
2021/11/28 06:35:07;;;;;;;;;;;22.40;41.50;;;;;;5097479;28;19908;-85
2021/11/28 06:37:32;;;;;;;;;;;22.40;41.50;;;;;;5097041;28;19924;-84
2021/11/28 06:40:00;;;;;;;;;;;22.40;41.50;;;;;;5080587;28;20320;-84
2021/11/28 06:42:26;;;;;;;;;;;22.40;41.50;;;;;;5097459;28;20252;-83
2021/11/28 06:44:51;;;;;;;;;;;22.50;41.50;;;;;;5080687;28;19908;-83
2021/11/28 06:47:19;;;;;;;;;;;22.40;41.50;;;;;;5080627;28;19908;-85
2021/11/28 06:49:44;;;;;;;;;;;22.40;41.50;;;;;;5080305;28;19994;-83
2021/11/28 06:52:12;;;;;;;;;;;22.40;41.50;;;;;;5080204;28;19970;-83
2021/11/28 06:54:38;;;;;;;;;;;22.40;41.50;;;;;;5080446;28;19920;-84
2021/11/28 06:57:06;;;;;;;;;;;22.40;41.50;;;;;;5080336;28;19999;-83
2021/11/28 06:59:32;;;;;;;;;;;22.40;41.50;;;;;;5080980;28;19908;-85
2021/11/28 07:01:57;;;;;;;;;;;22.40;41.50;;;;;;5102434;28;20256;-79
2021/11/28 07:04:23;;;;;;;;;;;22.40;41.50;;;;;;5086581;28;19919;-82
2021/11/28 07:06:51;;;;;;;;;;;22.40;41.50;;;;;;5100303;28;19908;-80
2021/11/28 07:09:16;;;;;;;;;;;22.40;41.40;;;;;;5100259;28;19999;-81
2021/11/28 07:11:42;;;;;;;;;;;22.40;41.40;;;;;;5084052;28;19997;-81
2021/11/28 07:14:08;;;;;;;;;;;22.40;41.40;;;;;;5083844;28;20337;-83
2021/11/28 07:16:33;;;;;;;;;;;22.40;41.40;;;;;;5085068;28;19915;-87
2021/11/28 07:18:59;;;;;;;;;;;22.30;41.40;;;;;;5102855;28;20248;-84
2021/11/28 07:21:24;;;;;;;;;;;22.40;41.50;;;;;;5097926;28;20355;-85
2021/11/28 07:23:50;;;;;;;;;;;22.40;41.50;;;;;;5081029;28;20309;-84
2021/11/28 07:26:16;;;;;;;;;;;22.40;41.50;;;;;;5097425;28;20241;-82
2021/11/28 07:28:42;;;;;;;;;;;22.30;41.40;;;;;;5079822;28;19954;-84
2021/11/28 07:31:10;;;;;;;;;;;22.30;41.40;;;;;;5096620;28;19908;-84
2021/11/28 07:33:38;;;;;;;;;;;22.40;41.40;;;;;;5079199;28;19935;-82
2021/11/28 07:36:04;;;;;;;;;;;22.30;41.40;;;;;;5079380;28;20381;-82
2021/11/28 07:38:35;;;;;;;;;;;22.30;41.40;;;;;;5095896;28;19950;-80
2021/11/28 07:41:00;;;;;;;;;;;22.30;41.40;;;;;;5096374;28;19915;-82
2021/11/28 07:43:26;;;;;;;;;;;22.30;41.40;;;;;;5096145;28;20303;-81
2021/11/28 07:45:52;;;;;;;;;;;22.30;41.40;;;;;;5079169;28;19918;-84
2021/11/28 07:48:20;;;;;;;;;;;22.30;41.40;;;;;;5079028;28;19954;-79
2021/11/28 07:50:48;;;;;;;;;;;22.30;41.40;;;;;;5078589;28;19914;-81
2021/11/28 07:53:14;;;;;;;;;;;22.30;41.40;;;;;;5078525;28;19974;-81
2021/11/28 07:55:42;;;;;;;;;;;22.30;41.40;;;;;;5079029;28;20202;-84
2021/11/28 07:58:13;;;;;;;;;;;22.30;41.40;;;;;;5095643;28;20178;-81
2021/11/28 08:00:41;;;;;;;;;;;22.30;41.40;;;;;;5096229;28;19908;-80
2021/11/28 08:03:09;;;;;;;;;;;22.30;41.40;;;;;;5095377;28;19908;-83
2021/11/28 08:05:34;;;;;;;;;;;22.30;41.40;;;;;;5078498;28;19912;-85
2021/11/28 08:08:03;;;;;;;;;;;22.30;41.40;;;;;;5095982;28;19916;-84
2021/11/28 08:10:29;;;;;;;;;;;22.30;41.40;;;;;;5078418;28;19919;-84
2021/11/28 08:12:55;;;;;;;;;;;22.30;42.00;;;;;;5095334;28;19912;-85
2021/11/28 08:15:23;;;;;;;;;;;22.30;41.40;;;;;;5095365;28;19908;-81
2021/11/28 08:17:51;;;;;;;;;;;22.30;41.40;;;;;;5095582;28;19908;-83
2021/11/28 08:20:17;;;;;;;;;;;22.30;41.40;;;;;;5078701;28;19943;-84
2021/11/28 08:22:43;;;;;;;;;;;22.30;41.30;;;;;;5078115;28;19908;-84
2021/11/28 08:25:09;;;;;;;;;;;22.30;41.30;;;;;;5095778;28;20003;-82
2021/11/28 08:27:34;;;;;;;;;;;22.30;41.30;;;;;;5078793;28;19999;-82
2021/11/28 08:30:04;;;;;;;;;;;22.30;41.30;;;;;;5078598;28;20260;-84
2021/11/28 08:32:29;;;;;;;;;;;22.30;41.30;;;;;;5078541;28;19912;-83
2021/11/28 08:34:55;;;;;;;;;;;22.30;41.30;;;;;;5079314;28;20324;-82
2021/11/28 08:37:20;;;;;;;;;;;22.20;41.30;;;;;;5095282;28;19924;-81
2021/11/28 08:39:48;;;;;;;;;;;22.20;41.30;;;;;;5078615;28;19908;-79
2021/11/28 08:42:13;;;;;;;;;;;22.30;41.30;;;;;;5095570;28;20448;-82
2021/11/28 08:44:39;;;;;;;;;;;22.30;41.30;;;;;;5078430;28;20018;-83
2021/11/28 08:47:07;;;;;;;;;;;22.20;41.30;;;;;;5078038;28;19908;-82
2021/11/28 08:49:35;;;;;;;;;;;22.20;41.30;;;;;;5078276;28;19923;-84
2021/11/28 08:52:00;;;;;;;;;;;22.20;41.30;;;;;;5078298;28;20264;-82
2021/11/28 08:54:30;;;;;;;;;;;22.20;41.30;;;;;;5094740;28;19922;-82
2021/11/28 08:56:58;;;;;;;;;;;22.20;41.30;;;;;;5095060;28;19968;-80
2021/11/28 08:59:26;;;;;;;;;;;22.20;41.30;;;;;;5078293;28;19919;-85
2021/11/28 09:01:54;;;;;;;;;;;22.20;41.30;;;;;;5094782;28;19922;-81
2021/11/28 09:04:19;;;;;;;;;;;22.20;41.30;;;;;;5094688;28;19908;-82
2021/11/28 09:06:45;;;;;;;;;;;22.20;41.30;;;;;;5094811;28;20265;-83
2021/11/28 09:09:10;;;;;;;;;;;22.20;41.30;;;;;;5078467;28;20299;-82
2021/11/28 09:11:36;;;;;;;;;;;22.20;41.30;;;;;;5077856;28;20354;-82
2021/11/28 09:14:05;;;;;;;;;;;22.20;41.30;;;;;;5094827;28;19912;-86
2021/11/28 09:16:30;;;;;;;;;;;22.20;41.30;;;;;;5095028;28;19915;-81
2021/11/28 09:21:42;;;;;;;;;;;22.20;41.30;;;;;;5081339;28;19909;-85
2021/11/28 09:26:54;;;;;;;;;;;22.20;41.40;;;;;;5099109;28;19991;-82
2021/11/28 09:29:19;;;;;;;;;;;22.20;41.40;;;;;;5081863;28;19918;-83
2021/11/28 09:31:48;;;;;;;;;;;22.20;41.40;;;;;;5082344;28;20006;-82
2021/11/28 09:34:13;;;;;;;;;;;22.10;41.30;;;;;;5081982;28;20003;-83
2021/11/28 09:36:39;;;;;;;;;;;22.10;41.30;;;;;;5098255;28;19951;-81
2021/11/28 09:39:05;;;;;;;;;;;22.20;41.30;;;;;;5081654;28;20012;-81
2021/11/28 09:41:34;;;;;;;;;;;22.10;41.30;;;;;;5098320;28;19907;-84
2021/11/28 09:44:02;;;;;;;;;;;22.10;41.30;;;;;;5081352;28;20354;-84
2021/11/28 09:46:27;;;;;;;;;;;22.20;41.30;;;;;;5081662;28;19908;-82
2021/11/28 09:49:02;;;;;;;;;;;22.10;41.30;;;;;;5098764;28;19912;-81
2021/11/28 09:51:27;;;;;;;;;;;22.20;41.30;;;;;;5082855;28;20319;-85
2021/11/28 09:53:57;;;;;;;;;;;22.20;41.20;;;;;;5081662;28;19948;-85
2021/11/28 09:56:26;;;;;;;;;;;22.20;41.20;;;;;;5099078;28;19912;-85
2021/11/28 09:58:51;;;;;;;;;;;22.20;41.20;;;;;;5082260;28;19923;-83
2021/11/28 10:01:19;;;;;;;;;;;22.20;41.20;;;;;;5082167;28;20264;-84
2021/11/28 10:03:45;;;;;;;;;;;22.10;41.20;;;;;;5081962;28;19908;-85
2021/11/28 10:06:11;;;;;;;;;;;22.20;41.20;;;;;;5087252;28;19908;-83
2021/11/28 10:08:36;;;;;;;;;;;22.10;41.20;;;;;;5106312;28;19940;-82
2021/11/28 10:11:17;;;;;;;;;;;22.10;41.10;;;;;;5090624;28;19923;-82
2021/11/28 10:13:46;;;;;;;;;;;22.10;41.20;;;;;;5110342;28;19959;-82
2021/11/28 10:16:13;;;;;;;;;;;22.20;41.20;;;;;;5091730;28;19919;-83
2021/11/28 10:18:39;;;;;;;;;;;22.20;41.20;;;;;;5089698;28;19912;-82
2021/11/28 10:21:05;;;;;;;;;;;22.20;41.20;;;;;;5094297;28;20348;-83
2021/11/28 10:23:30;;;;;;;;;;;22.10;41.10;;;;;;5091391;28;19965;-82
2021/11/28 10:26:14;;;;;;;;;;;22.10;41.10;;;;;;5082132;28;19919;-84
2021/11/28 10:28:58;;;;;;;;;;;22.10;41.10;;;;;;5080806;28;20307;-83
2021/11/28 10:31:25;;;;;;;;;;;22.10;41.00;;;;;;5098336;28;19943;-83
2021/11/28 10:33:51;;;;;;;;;;;22.10;41.10;;;;;;5097080;28;19920;-85
2021/11/28 10:36:17;;;;;;;;;;;22.20;41.10;;;;;;5080373;28;19969;-87
2021/11/28 10:38:44;;;;;;;;;;;22.10;41.10;;;;;;5080247;28;20344;-85
2021/11/28 10:41:27;;;;;;;;;;;22.10;41.00;;;;;;5080667;28;19908;-86
2021/11/28 10:43:53;;;;;;;;;;;22.10;41.00;;;;;;5080138;28;19974;-83
2021/11/28 10:46:22;;;;;;;;;;;22.10;41.00;;;;;;5080023;28;20248;-86
2021/11/28 10:49:01;;;;;;;;;;;22.10;41.00;;;;;;5097247;28;20381;-87
2021/11/28 10:51:29;;;;;;;;;;;22.20;41.10;;;;;;5097256;28;19914;-82
2021/11/28 10:53:57;;;;;;;;;;;22.10;41.00;;;;;;5097385;28;19912;-85
2021/11/28 10:56:22;;;;;;;;;;;22.10;41.10;;;;;;5081384;28;19951;-86
2021/11/28 10:58:51;;;;;;;;;;;22.10;41.10;;;;;;5096894;28;19919;-84
2021/11/28 11:01:19;;;;;;;;;;;22.10;41.10;;;;;;5080253;28;19908;-83
2021/11/28 11:03:48;;;;;;;;;;;22.10;41.00;;;;;;5096740;28;19915;-84
2021/11/28 11:06:14;;;;;;;;;;;22.10;41.10;;;;;;5080126;28;19908;-84
2021/11/28 11:08:40;;;;;;;;;;;22.10;41.10;;;;;;5097461;28;20351;-84
2021/11/28 11:11:07;;;;;;;;;;;22.10;41.10;;;;;;5079968;28;20355;-84
2021/11/28 11:13:35;;;;;;;;;;;22.10;41.00;;;;;;5096333;28;19916;-83
2021/11/28 11:16:08;;;;;;;;;;;22.10;41.00;;;;;;5080342;28;19916;-81
2021/11/28 11:18:36;;;;;;;;;;;22.10;41.00;;;;;;5080019;28;19912;-80
2021/11/28 11:21:02;;;;;;;;;;;22.10;41.10;;;;;;5079723;28;19958;-80
2021/11/28 11:23:43;;;;;;;;;;;22.10;41.10;;;;;;5079391;28;20244;-81
2021/11/28 11:26:15;;;;;;;;;;;22.10;41.00;;;;;;5096344;28;19907;-82
2021/11/28 11:28:59;;;;;;;;;;;22.10;41.00;;;;;;5096537;28;19916;-80
2021/11/28 11:31:27;;;;;;;;;;;22.10;41.00;;;;;;5096979;28;20296;-78
2021/11/28 11:33:56;;;;;;;;;;;22.10;41.00;;;;;;5078802;28;19916;-80
2021/11/28 11:36:23;;;;;;;;;;;22.10;41.00;;;;;;5079082;28;19915;-79
2021/11/28 11:38:49;;;;;;;;;;;22.10;41.00;;;;;;5078685;28;19942;-81
2021/11/28 11:41:15;;;;;;;;;;;22.10;41.00;;;;;;5079245;28;19935;-83
2021/11/28 11:43:43;;;;;;;;;;;22.10;41.00;;;;;;5079459;28;19908;-82
2021/11/28 11:46:09;;;;;;;;;;;22.10;41.10;;;;;;5096153;28;19928;-85
2021/11/28 11:48:35;;;;;;;;;;;22.10;41.00;;;;;;5079231;28;19919;-84
2021/11/28 11:51:09;;;;;;;;;;;22.10;40.80;;;;;;5079136;28;19908;-84
2021/11/28 11:53:34;;;;;;;;;;;22.10;40.80;;;;;;5079403;28;19923;-84
2021/11/28 11:56:03;;;;;;;;;;;22.10;40.70;;;;;;5096237;28;19908;-83
2021/11/28 11:58:31;;;;;;;;;;;22.10;40.60;;;;;;5079596;28;19912;-85
2021/11/28 12:01:07;;;;;;;;;;;22.10;40.60;;;;;;5097031;28;19961;-84
2021/11/28 12:04:02;;;;;;;;;;;22.10;40.60;;;;;;5096044;28;19924;-80
2021/11/28 12:06:48;;;;;;;;;;;22.10;40.60;;;;;;5087743;28;19908;-84
2021/11/28 12:09:26;;;;;;;;;;;22.10;40.40;;;;;;5095980;28;20385;-83
2021/11/28 12:12:11;;;;;;;;;;;22.10;40.40;;;;;;5095996;28;19912;-83
2021/11/28 12:14:40;;;;;;;;;;;22.10;40.30;;;;;;5079463;28;19912;-84
2021/11/28 12:17:43;;;;;;;;;;;22.10;40.30;;;;;;5079412;28;19908;-84
2021/11/28 12:20:11;;;;;;;;;;;22.10;40.30;;;;;;5054971;28;20002;-83
2021/11/28 12:22:41;;;;;;;;;;;22.00;40.20;;;;;;5068822;28;19939;-84
2021/11/28 12:25:28;;;;;;;;;;;22.00;40.20;;;;;;5095406;28;19916;-84
2021/11/28 12:27:53;;;;;;;;;;;22.00;40.10;;;;;;5096149;28;19922;-84
2021/11/28 12:30:35;;;;;;;;;;;22.00;40.10;;;;;;5078297;28;19978;-82
2021/11/28 12:33:02;;;;;;;;;;;22.00;40.20;;;;;;5078224;28;20015;-83
2021/11/28 12:35:38;;;;;;;;;;;22.00;40.30;;;;;;5095141;28;19919;-83
2021/11/28 12:38:03;;;;;;;;;;;22.00;41.50;;;;;;5095176;28;20034;-82
2021/11/28 12:40:31;;;;;;;;;;;22.10;42.40;;;;;;5078474;28;19951;-84
2021/11/28 12:43:12;;;;;;;;;;;22.10;43.70;;;;;;5078019;28;19995;-83
2021/11/28 12:45:38;;;;;;;;;;;22.10;44.50;;;;;;5078196;28;20340;-81
2021/11/28 12:48:17;;;;;;;;;;;22.10;44.50;;;;;;5094907;28;20015;-81
2021/11/28 12:50:52;;;;;;;;;;;22.20;44.70;;;;;;5078026;28;19908;-83
2021/11/28 12:53:46;;;;;;;;;;;22.30;45.50;;;;;;5078233;28;20018;-82
2021/11/28 12:56:12;;;;;;;;;;;22.30;47.20;;;;;;5092655;28;19923;-81
2021/11/28 12:58:56;;;;;;;;;;;22.30;49.00;;;;;;5094738;28;19911;-83
2021/11/28 13:01:43;;;;;;;;;;;22.40;50.70;;;;;;5096217;28;19915;-80
2021/11/28 13:04:28;;;;;;;;;;;22.50;51.70;;;;;;5095208;28;19908;-81
2021/11/28 13:07:20;;;;;;;;;;;22.50;52.50;;;;;;5098430;28;19912;-81
2021/11/28 13:09:48;;;;;;;;;;;22.50;53.20;;;;;;5098065;28;20249;-79
2021/11/28 13:12:13;;;;;;;;;;;22.50;54.10;;;;;;5100043;28;19912;-82
2021/11/28 13:14:39;;;;;;;;;;;22.50;55.30;;;;;;5081396;28;19912;-83
2021/11/28 13:17:05;;;;;;;;;;;22.60;55.10;;;;;;5098816;28;20226;-82
2021/11/28 13:19:32;;;;;;;;;;;22.60;54.80;;;;;;5082442;28;19908;-83
2021/11/28 13:22:00;;;;;;;;;;;22.60;54.20;;;;;;5077984;28;19908;-80
2021/11/28 13:24:26;;;;;;;;;;;22.50;53.80;;;;;;5077541;28;20383;-81
2021/11/28 13:26:57;;;;;;;;;;;22.50;53.60;;;;;;5094796;28;19912;-84
2021/11/28 13:29:26;;;;;;;;;;;22.50;53.50;;;;;;5078178;28;19924;-82
2021/11/28 13:31:59;;;;;;;;;;;22.50;53.30;;;;;;5078501;28;19973;-81
2021/11/28 13:34:33;;;;;;;;;;;22.40;52.80;;;;;;5078090;28;19981;-82
2021/11/28 13:36:59;;;;;;;;;;;22.50;52.40;;;;;;5077610;28;19924;-81
2021/11/28 13:39:25;;;;;;;;;;;22.50;51.90;;;;;;5077666;28;19981;-83
2021/11/28 13:41:54;;;;;;;;;;;22.50;51.50;;;;;;5094843;28;19908;-84
2021/11/28 13:44:20;;;;;;;;;;;22.50;51.20;;;;;;5077857;28;19908;-83
2021/11/28 13:46:49;;;;;;;;;;;22.50;50.90;;;;;;5078391;28;20323;-82
2021/11/28 13:49:15;;;;;;;;;;;22.60;50.60;;;;;;5094271;28;19961;-83
2021/11/28 13:51:51;;;;;;;;;;;22.50;50.40;;;;;;5094704;28;19908;-83
2021/11/28 13:54:21;;;;;;;;;;;22.50;50.10;;;;;;5094397;28;19943;-84
2021/11/28 13:56:51;;;;;;;;;;;22.60;49.90;;;;;;5094818;28;19908;-83
2021/11/28 13:59:20;;;;;;;;;;;22.60;49.70;;;;;;5077573;28;19908;-84
2021/11/28 14:01:45;;;;;;;;;;;22.50;49.50;;;;;;5094444;28;19919;-83
2021/11/28 14:04:21;;;;;;;;;;;22.50;49.30;;;;;;5077210;28;20248;-83
2021/11/28 14:06:46;;;;;;;;;;;22.50;49.10;;;;;;5094414;28;19999;-84
2021/11/28 14:09:12;;;;;;;;;;;22.50;49.10;;;;;;5078516;28;19955;-84
2021/11/28 14:11:41;;;;;;;;;;;22.50;48.80;;;;;;5097838;28;19919;-85
2021/11/28 14:14:07;;;;;;;;;;;22.50;48.70;;;;;;5097529;28;20020;-83
2021/11/28 14:16:35;;;;;;;;;;;22.50;48.60;;;;;;5080873;28;19919;-84
2021/11/28 14:19:03;;;;;;;;;;;22.60;48.50;;;;;;5081529;28;19955;-83
2021/11/28 14:21:32;;;;;;;;;;;22.60;48.30;;;;;;5081175;28;20341;-83
2021/11/28 14:23:57;;;;;;;;;;;22.60;48.10;;;;;;5081168;28;19966;-79
2021/11/28 14:26:28;;;;;;;;;;;22.60;47.90;;;;;;5080532;28;19916;-83
2021/11/28 14:28:57;;;;;;;;;;;22.60;47.80;;;;;;5081232;28;19969;-82
2021/11/28 14:31:25;;;;;;;;;;;22.60;47.70;;;;;;5097313;28;19919;-81